Time;durP1;ratioP1;P1;durP2;ratioP2;P2;SDS_P1;SDS_P2;PMS_P1;PMS_P2;Temp;Humidity;BMP_temperature;BMP_pressure;BME280_temperature;BME280_humidity;BME280_pressure;Samples;Min_cycle;Max_cycle;Signal;HPM_P1;HPM_P2
2023/12/07 00:00:51;;;;;;;4.80;3.45;;;10.30;98.90;;;;;;5034108;28;20061;-44
2023/12/07 00:03:16;;;;;;;4.15;3.20;;;10.30;98.70;;;;;;5034006;28;20030;-44
2023/12/07 00:05:42;;;;;;;5.00;3.30;;;10.40;98.70;;;;;;5033780;28;20028;-45
2023/12/07 00:08:11;;;;;;;5.13;3.30;;;10.40;98.60;;;;;;5033655;28;20021;-44
2023/12/07 00:10:36;;;;;;;4.75;3.35;;;10.50;98.50;;;;;;5033720;28;20083;-44
2023/12/07 00:13:02;;;;;;;5.65;3.47;;;10.40;98.40;;;;;;5034054;28;20022;-44
2023/12/07 00:15:28;;;;;;;3.88;2.92;;;10.50;98.30;;;;;;5034517;28;20500;-45
2023/12/07 00:17:53;;;;;;;6.53;3.83;;;10.50;98.30;;;;;;5033603;28;20025;-44
2023/12/07 00:20:19;;;;;;;4.93;3.30;;;10.50;98.20;;;;;;5033523;28;20040;-44
2023/12/07 00:22:45;;;;;;;4.30;3.25;;;10.50;98.20;;;;;;5033598;28;20041;-45
2023/12/07 00:25:10;;;;;;;4.65;3.42;;;10.60;98.20;;;;;;5033541;28;20029;-45
2023/12/07 00:27:36;;;;;;;4.53;2.83;;;10.50;98.10;;;;;;5032482;28;20159;-45
2023/12/07 00:30:03;;;;;;;4.53;3.33;;;10.60;98.10;;;;;;5033372;28;20393;-45
2023/12/07 00:32:28;;;;;;;3.92;3.38;;;10.60;98.10;;;;;;5033455;28;20073;-45
2023/12/07 00:34:54;;;;;;;4.25;3.13;;;10.60;98.10;;;;;;5033926;28;20415;-44
2023/12/07 00:37:20;;;;;;;4.13;3.28;;;10.50;98.10;;;;;;5033385;28;20030;-45
2023/12/07 00:39:46;;;;;;;5.85;3.30;;;10.50;98.10;;;;;;5034630;28;20034;-44
2023/12/07 00:42:11;;;;;;;5.95;3.25;;;10.50;98.10;;;;;;5033471;28;20025;-45
2023/12/07 00:44:40;;;;;;;5.22;3.15;;;10.50;98.10;;;;;;5033180;28;20037;-45
2023/12/07 00:47:06;;;;;;;4.68;3.30;;;10.50;98.00;;;;;;5033934;28;20487;-43
2023/12/07 00:49:31;;;;;;;3.17;2.60;;;10.50;98.10;;;;;;5033258;28;20033;-44
2023/12/07 00:51:57;;;;;;;4.63;2.88;;;10.50;98.00;;;;;;5034572;28;20701;-45
2023/12/07 00:54:23;;;;;;;3.85;2.97;;;10.50;98.10;;;;;;5033192;28;20036;-44
2023/12/07 00:56:48;;;;;;;3.80;2.80;;;10.50;98.10;;;;;;5033482;28;20029;-44
2023/12/07 00:59:14;;;;;;;3.40;2.58;;;10.50;98.10;;;;;;5033195;28;20034;-44
2023/12/07 01:01:40;;;;;;;3.67;2.78;;;10.40;98.10;;;;;;5032907;28;20021;-44
2023/12/07 01:04:05;;;;;;;3.90;2.55;;;10.50;98.10;;;;;;5032615;28;20091;-45
2023/12/07 01:06:31;;;;;;;4.15;2.72;;;10.40;98.20;;;;;;5032646;28;20035;-45
2023/12/07 01:08:57;;;;;;;4.07;2.78;;;10.40;98.20;;;;;;5032920;28;20034;-44
2023/12/07 01:11:23;;;;;;;4.43;2.90;;;10.40;98.20;;;;;;5032624;28;20014;-46
2023/12/07 01:13:48;;;;;;;4.47;2.97;;;10.40;98.20;;;;;;5032656;28;20029;-44
2023/12/07 01:16:14;;;;;;;4.32;3.00;;;10.40;98.20;;;;;;5032475;28;20021;-45
2023/12/07 01:18:40;;;;;;;3.63;2.70;;;10.40;98.20;;;;;;5032321;28;20060;-44
2023/12/07 01:21:05;;;;;;;3.40;2.10;;;10.40;98.20;;;;;;5032887;28;20025;-45
2023/12/07 01:23:32;;;;;;;3.60;2.80;;;10.30;98.20;;;;;;5033860;28;20030;-44
2023/12/07 01:25:57;;;;;;;3.40;2.70;;;10.30;98.20;;;;;;5032314;28;20030;-45
2023/12/07 01:28:23;;;;;;;3.60;2.70;;;10.30;98.20;;;;;;5032288;28;20018;-44
2023/12/07 01:30:49;;;;;;;4.05;2.63;;;10.30;98.20;;;;;;5031710;28;20037;-44
2023/12/07 01:33:15;;;;;;;3.97;2.80;;;10.30;98.20;;;;;;5031663;28;20036;-44
2023/12/07 01:35:40;;;;;;;3.65;2.60;;;10.30;98.30;;;;;;5032152;28;20044;-45
2023/12/07 01:38:06;;;;;;;3.55;2.70;;;10.30;98.30;;;;;;5032253;28;20479;-45
2023/12/07 01:40:32;;;;;;;4.80;2.80;;;10.30;98.30;;;;;;5032817;28;20028;-45
2023/12/07 01:42:57;;;;;;;3.50;2.47;;;10.20;98.30;;;;;;5032109;28;20516;-45
2023/12/07 01:45:23;;;;;;;3.75;2.47;;;10.30;98.30;;;;;;5031923;28;20112;-45
2023/12/07 01:47:51;;;;;;;4.20;2.78;;;10.20;98.30;;;;;;5031586;28;20025;-45
2023/12/07 01:50:23;;;;;;;3.65;2.38;;;10.20;98.30;;;;;;5031958;28;20049;-45
2023/12/07 01:52:57;;;;;;;3.67;2.80;;;10.20;98.30;;;;;;5031947;28;20032;-44
2023/12/07 01:55:24;;;;;;;7.72;3.60;;;10.20;98.70;;;;;;5031839;28;20033;-45
2023/12/07 01:57:50;;;;;;;7.88;4.30;;;10.20;98.30;;;;;;5031599;28;20030;-45
2023/12/07 02:00:16;;;;;;;7.43;3.88;;;10.20;98.40;;;;;;5031737;28;20105;-45
2023/12/07 02:02:44;;;;;;;6.55;3.35;;;10.20;98.40;;;;;;5032016;28;20033;-44
2023/12/07 02:05:11;;;;;;;7.45;3.45;;;10.20;98.40;;;;;;5031769;28;20108;-45
2023/12/07 02:07:37;;;;;;;5.47;3.05;;;10.10;98.40;;;;;;5032236;28;20053;-45
2023/12/07 02:10:03;;;;;;;6.68;3.10;;;10.10;98.40;;;;;;5031472;28;20068;-45
2023/12/07 02:12:29;;;;;;;5.40;3.15;;;10.10;98.40;;;;;;5031569;28;20021;-45
2023/12/07 02:14:56;;;;;;;6.00;3.20;;;10.10;98.40;;;;;;5032380;28;20037;-45
2023/12/07 02:17:34;;;;;;;5.13;3.15;;;10.10;98.40;;;;;;5031612;28;20060;-44
2023/12/07 02:20:26;;;;;;;6.10;3.47;;;10.10;98.40;;;;;;5031490;28;20427;-45
2023/12/07 02:22:56;;;;;;;6.35;3.42;;;10.10;98.40;;;;;;5030373;28;20141;-44
2023/12/07 02:25:32;;;;;;;6.75;3.20;;;10.10;98.40;;;;;;5031991;28;20048;-44
2023/12/07 02:27:58;;;;;;;4.80;2.92;;;10.10;98.40;;;;;;5032601;28;20022;-45
2023/12/07 02:30:23;;;;;;;7.85;3.50;;;10.10;98.40;;;;;;5031486;28;20029;-45
2023/12/07 02:32:49;;;;;;;6.25;3.35;;;10.10;98.40;;;;;;5032580;28;20555;-45
2023/12/07 02:35:15;;;;;;;4.70;3.05;;;10.10;98.50;;;;;;5031110;28;20037;-45
2023/12/07 02:37:46;;;;;;;4.95;3.40;;;10.10;98.50;;;;;;5031733;28;20378;-45
2023/12/07 02:40:15;;;;;;;5.07;2.80;;;10.10;98.50;;;;;;5031231;28;20386;-45
2023/12/07 02:42:42;;;;;;;4.72;2.80;;;10.00;98.50;;;;;;5030931;28;20109;-45
2023/12/07 02:45:09;;;;;;;4.22;2.53;;;10.00;98.50;;;;;;5031301;28;20059;-45
2023/12/07 02:47:35;;;;;;;5.22;2.65;;;10.00;98.50;;;;;;5030971;28;20030;-44
2023/12/07 02:50:02;;;;;;;3.97;2.58;;;10.00;98.50;;;;;;5032043;28;20036;-45
2023/12/07 02:52:28;;;;;;;6.05;2.83;;;10.00;98.50;;;;;;5031157;28;20498;-44
2023/12/07 02:54:54;;;;;;;5.05;3.05;;;10.00;98.50;;;;;;5031174;28;20025;-45
2023/12/07 02:57:19;;;;;;;6.63;3.40;;;10.00;98.50;;;;;;5032431;28;20025;-44
2023/12/07 02:59:45;;;;;;;4.85;2.72;;;10.00;98.50;;;;;;5031758;28;20026;-45
2023/12/07 03:02:11;;;;;;;5.60;3.03;;;10.00;98.50;;;;;;5031841;28;20032;-45
2023/12/07 03:04:36;;;;;;;4.28;2.83;;;10.00;98.50;;;;;;5030883;28;20522;-45
2023/12/07 03:07:02;;;;;;;3.88;2.55;;;10.00;98.50;;;;;;5031391;28;20026;-45
2023/12/07 03:09:27;;;;;;;3.92;2.67;;;10.00;98.50;;;;;;5031214;28;20025;-45
2023/12/07 03:11:53;;;;;;;4.43;2.63;;;10.00;98.50;;;;;;5031749;28;20022;-44
2023/12/07 03:14:19;;;;;;;5.75;2.67;;;10.00;98.50;;;;;;5030987;28;20395;-44
2023/12/07 03:16:45;;;;;;;5.47;3.20;;;10.00;98.50;;;;;;5032037;28;20368;-44
2023/12/07 03:19:11;;;;;;;5.43;2.88;;;10.00;98.50;;;;;;5031522;28;20376;-45
2023/12/07 03:21:40;;;;;;;4.32;2.75;;;10.00;98.50;;;;;;5031009;28;20507;-43
2023/12/07 03:24:10;;;;;;;4.32;3.03;;;10.00;98.50;;;;;;5030917;28;20140;-44
2023/12/07 03:26:37;;;;;;;5.15;2.92;;;10.00;98.50;;;;;;5030817;28;20076;-44
2023/12/07 03:29:02;;;;;;;5.78;3.10;;;9.90;98.50;;;;;;5031487;28;20079;-44
2023/12/07 03:31:28;;;;;;;4.35;2.60;;;9.90;98.50;;;;;;5030759;28;20025;-44
2023/12/07 03:33:55;;;;;;;6.25;3.00;;;9.90;98.50;;;;;;5031296;28;20467;-44
2023/12/07 03:36:20;;;;;;;4.43;2.65;;;9.90;98.50;;;;;;5030849;28;20136;-44
2023/12/07 03:38:46;;;;;;;5.75;2.92;;;9.90;98.50;;;;;;5030645;28;20100;-45
2023/12/07 03:41:11;;;;;;;4.68;2.60;;;9.90;98.50;;;;;;5030421;28;20471;-44
2023/12/07 03:43:37;;;;;;;4.47;2.42;;;9.90;98.50;;;;;;5032054;28;20298;-44
2023/12/07 03:46:07;;;;;;;4.28;2.53;;;9.90;98.50;;;;;;5030679;28;20038;-44
2023/12/07 03:48:34;;;;;;;4.90;2.95;;;9.90;98.50;;;;;;5030843;28;20017;-44
2023/12/07 03:51:00;;;;;;;3.88;2.50;;;9.90;98.50;;;;;;5030669;28;20017;-44
2023/12/07 03:53:25;;;;;;;3.88;2.45;;;9.90;98.50;;;;;;5031315;28;20021;-44
2023/12/07 03:55:51;;;;;;;5.22;3.00;;;9.90;98.50;;;;;;5033911;28;20108;-45
2023/12/07 03:58:17;;;;;;;3.30;2.10;;;9.90;98.50;;;;;;5034421;28;20030;-44
2023/12/07 04:00:44;;;;;;;3.85;2.10;;;9.90;98.50;;;;;;5035121;28;20396;-44
2023/12/07 04:03:09;;;;;;;3.08;2.17;;;9.90;98.50;;;;;;5034341;28;20487;-44
2023/12/07 04:05:35;;;;;;;3.33;2.60;;;9.90;98.50;;;;;;5033864;28;20083;-45
2023/12/07 04:08:00;;;;;;;3.45;2.35;;;9.90;98.50;;;;;;5033826;28;20025;-45
2023/12/07 04:10:26;;;;;;;4.32;2.80;;;9.80;98.50;;;;;;5033729;28;20414;-43
2023/12/07 04:12:55;;;;;;;4.00;2.33;;;9.80;98.40;;;;;;5033877;28;20049;-44
2023/12/07 04:15:20;;;;;;;3.92;2.58;;;9.80;98.80;;;;;;5034284;28;20028;-44
2023/12/07 04:17:46;;;;;;;3.22;2.53;;;9.80;98.40;;;;;;5033527;28;20033;-45
2023/12/07 04:20:15;;;;;;;3.58;2.65;;;9.80;98.40;;;;;;5033971;28;20415;-45
2023/12/07 04:22:41;;;;;;;3.35;2.40;;;9.80;98.50;;;;;;5033566;28;20048;-45
2023/12/07 04:25:07;;;;;;;3.42;2.38;;;9.80;98.40;;;;;;5033890;28;20052;-44
2023/12/07 04:27:36;;;;;;;2.95;2.08;;;9.80;98.40;;;;;;5033886;28;20104;-44
2023/12/07 04:30:03;;;;;;;4.72;2.50;;;9.80;98.40;;;;;;5034148;28;20029;-44
2023/12/07 04:32:29;;;;;;;2.90;1.98;;;9.80;98.40;;;;;;5033385;28;20025;-44
2023/12/07 04:34:55;;;;;;;4.30;2.63;;;9.80;98.40;;;;;;5033576;28;20071;-44
2023/12/07 04:37:20;;;;;;;2.95;2.38;;;9.80;98.40;;;;;;5033774;28;20034;-44
2023/12/07 04:39:46;;;;;;;4.00;2.28;;;9.80;98.50;;;;;;5033299;28;20553;-44
2023/12/07 04:42:12;;;;;;;2.90;2.30;;;9.80;98.50;;;;;;5034382;28;20541;-45
2023/12/07 04:44:37;;;;;;;3.60;2.42;;;9.80;98.50;;;;;;5034251;28;20037;-44
2023/12/07 04:47:03;;;;;;;4.20;2.50;;;9.80;98.40;;;;;;5033071;28;20483;-44
2023/12/07 04:49:29;;;;;;;2.83;2.30;;;9.80;98.40;;;;;;5033701;28;20025;-44
2023/12/07 04:51:54;;;;;;;4.20;2.53;;;9.80;98.40;;;;;;5033793;28;20479;-44
2023/12/07 04:54:20;;;;;;;3.25;2.25;;;9.80;98.40;;;;;;5034050;28;20032;-44
2023/12/07 04:56:46;;;;;;;3.30;2.28;;;9.80;98.70;;;;;;5034241;28;20022;-45
2023/12/07 04:59:12;;;;;;;3.08;2.03;;;9.80;98.40;;;;;;5033241;28;20095;-44
2023/12/07 05:01:38;;;;;;;2.90;2.08;;;9.70;98.40;;;;;;5033039;28;20496;-44
2023/12/07 05:04:06;;;;;;;4.05;2.67;;;9.80;98.40;;;;;;5033785;28;20322;-44
2023/12/07 05:06:32;;;;;;;12.65;4.45;;;9.70;98.40;;;;;;5032667;28;20129;-46
2023/12/07 05:08:58;;;;;;;15.68;5.45;;;9.80;98.40;;;;;;5033318;28;20116;-44
2023/12/07 05:11:23;;;;;;;13.57;4.57;;;9.70;98.40;;;;;;5031756;28;20052;-44
2023/12/07 05:13:49;;;;;;;8.32;3.35;;;9.70;98.40;;;;;;5032836;28;20018;-44
2023/12/07 05:16:15;;;;;;;7.35;2.95;;;9.70;98.30;;;;;;5032467;28;20041;-44
2023/12/07 05:18:41;;;;;;;8.10;3.65;;;9.70;98.40;;;;;;5032497;28;20021;-45
2023/12/07 05:21:07;;;;;;;9.13;3.55;;;9.70;98.30;;;;;;5032592;28;20021;-44
2023/12/07 05:23:33;;;;;;;7.40;3.33;;;9.70;98.30;;;;;;5032681;28;20026;-45
2023/12/07 05:25:59;;;;;;;7.93;3.53;;;9.70;98.30;;;;;;5032407;28;20029;-44
2023/12/07 05:28:25;;;;;;;8.48;3.50;;;9.70;98.30;;;;;;5032768;28;20014;-43
2023/12/07 05:30:51;;;;;;;9.10;3.67;;;9.70;98.30;;;;;;5032401;28;20446;-44
2023/12/07 05:33:19;;;;;;;7.25;3.28;;;9.70;98.30;;;;;;5033480;28;20022;-45
2023/12/07 05:35:45;;;;;;;6.30;3.05;;;9.70;98.30;;;;;;5033199;28;20060;-45
2023/12/07 05:38:10;;;;;;;8.32;3.70;;;9.70;98.60;;;;;;5030812;28;20072;-44
2023/12/07 05:40:36;;;;;;;7.70;3.28;;;9.70;98.20;;;;;;5032659;28;20108;-44
2023/12/07 05:43:02;;;;;;;7.10;3.47;;;9.70;98.30;;;;;;5033259;28;20033;-44
2023/12/07 05:45:29;;;;;;;7.80;3.38;;;9.70;98.20;;;;;;5032940;28;20115;-44
2023/12/07 05:47:54;;;;;;;8.77;3.85;;;9.70;98.20;;;;;;5032044;28;20029;-44
2023/12/07 05:50:20;;;;;;;6.97;3.13;;;9.70;98.20;;;;;;5031887;28;20137;-45
2023/12/07 05:52:46;;;;;;;6.97;3.50;;;9.70;98.20;;;;;;5032028;28;20022;-44
2023/12/07 05:55:12;;;;;;;5.90;3.08;;;9.70;98.20;;;;;;5032332;28;20018;-43
2023/12/07 05:57:38;;;;;;;7.10;3.50;;;9.70;98.20;;;;;;5032522;28;20060;-44
2023/12/07 06:00:09;;;;;;;8.32;3.63;;;9.70;98.20;;;;;;5031965;28;20022;-44
2023/12/07 06:02:35;;;;;;;5.68;3.55;;;9.70;98.50;;;;;;5031853;28;20084;-45
2023/12/07 06:05:00;;;;;;;7.18;3.45;;;9.70;98.20;;;;;;5031783;28;20044;-44
2023/12/07 06:07:26;;;;;;;6.75;3.72;;;9.70;98.20;;;;;;5031797;28;20483;-44
2023/12/07 06:09:51;;;;;;;7.63;4.22;;;9.70;98.20;;;;;;5031478;28;20048;-44
2023/12/07 06:12:17;;;;;;;6.78;3.58;;;9.70;98.20;;;;;;5031798;28;20096;-45
2023/12/07 06:14:43;;;;;;;7.38;4.00;;;9.70;98.20;;;;;;5032400;28;20017;-44
2023/12/07 06:17:08;;;;;;;8.13;4.30;;;9.70;98.10;;;;;;5031893;28;20022;-44
2023/12/07 06:19:34;;;;;;;7.90;4.10;;;9.70;98.10;;;;;;5031945;28;20400;-44
2023/12/07 06:21:59;;;;;;;6.85;3.90;;;9.70;98.10;;;;;;5031479;28;20061;-45
2023/12/07 06:24:25;;;;;;;6.38;3.90;;;9.60;98.10;;;;;;5031418;28;20071;-43
2023/12/07 06:26:52;;;;;;;9.98;4.63;;;9.60;98.10;;;;;;5031167;28;20022;-44
2023/12/07 06:29:18;;;;;;;6.28;3.83;;;9.70;98.10;;;;;;5031602;28;20465;-44
2023/12/07 06:31:44;;;;;;;8.07;3.92;;;9.60;98.10;;;;;;5031748;28;20018;-44
2023/12/07 06:34:10;;;;;;;7.82;4.03;;;9.60;98.10;;;;;;5032207;28;20100;-45
2023/12/07 06:36:36;;;;;;;6.47;3.70;;;9.60;98.10;;;;;;5031301;28;20164;-45
2023/12/07 06:39:03;;;;;;;5.78;4.10;;;9.60;98.10;;;;;;5031412;28;20532;-44
2023/12/07 06:41:28;;;;;;;6.97;3.85;;;9.60;98.10;;;;;;5032911;28;20037;-44
2023/12/07 06:43:54;;;;;;;6.32;4.03;;;9.60;98.00;;;;;;5032067;28;20026;-45
2023/12/07 06:46:20;;;;;;;7.72;3.90;;;9.60;98.00;;;;;;5032191;28;20101;-43
2023/12/07 06:48:46;;;;;;;7.25;4.03;;;9.60;98.00;;;;;;5032400;28;20043;-44
2023/12/07 06:51:14;;;;;;;7.53;4.13;;;9.60;98.00;;;;;;5031160;28;20088;-44
2023/12/07 06:53:40;;;;;;;6.50;4.00;;;9.60;98.00;;;;;;5031111;28;20022;-44
2023/12/07 06:56:07;;;;;;;6.43;3.70;;;9.60;98.00;;;;;;5030887;28;20022;-43
2023/12/07 06:58:32;;;;;;;5.78;4.07;;;9.60;98.00;;;;;;5031201;28;20025;-45
2023/12/07 07:00:58;;;;;;;6.97;4.00;;;9.60;98.00;;;;;;5031210;28;20036;-44
2023/12/07 07:03:24;;;;;;;6.82;3.88;;;9.60;98.00;;;;;;5031095;28;20033;-45
2023/12/07 07:05:50;;;;;;;5.65;3.30;;;9.60;98.00;;;;;;5030981;28;20036;-45
2023/12/07 07:08:16;;;;;;;6.65;3.65;;;9.60;98.00;;;;;;5031693;28;20384;-44
2023/12/07 07:10:41;;;;;;;7.95;3.85;;;9.60;98.30;;;;;;5031753;28;20052;-45
2023/12/07 07:13:07;;;;;;;5.47;4.00;;;9.60;98.00;;;;;;5030976;28;20121;-43
2023/12/07 07:15:33;;;;;;;7.63;3.92;;;9.60;98.00;;;;;;5030911;28;20081;-45
2023/12/07 07:17:59;;;;;;;7.63;3.88;;;9.60;98.00;;;;;;5031039;28;20018;-44
2023/12/07 07:20:25;;;;;;;6.65;4.03;;;9.60;98.00;;;;;;5031152;28;20106;-45
2023/12/07 07:22:50;;;;;;;5.95;3.58;;;9.60;98.00;;;;;;5030774;28;20065;-44
2023/12/07 07:25:18;;;;;;;7.93;4.03;;;9.60;98.00;;;;;;5030664;28;20057;-43
2023/12/07 07:27:47;;;;;;;6.10;4.28;;;9.60;98.00;;;;;;5030950;28;20079;-44
2023/12/07 07:30:13;;;;;;;7.57;4.10;;;9.60;98.00;;;;;;5033741;28;20104;-45
2023/12/07 07:32:40;;;;;;;6.38;4.30;;;9.70;98.00;;;;;;5034703;28;20097;-44
2023/12/07 07:35:05;;;;;;;6.70;3.85;;;9.70;97.90;;;;;;5035291;28;20067;-45
2023/12/07 07:37:31;;;;;;;6.75;3.90;;;9.70;97.90;;;;;;5034732;28;20025;-45
2023/12/07 07:39:57;;;;;;;6.07;4.07;;;9.80;97.90;;;;;;5032904;28;20029;-44
2023/12/07 07:42:22;;;;;;;7.72;3.83;;;9.80;97.90;;;;;;5034577;28;20034;-44
2023/12/07 07:44:48;;;;;;;5.68;3.72;;;9.80;97.80;;;;;;5034913;28;20026;-44
2023/12/07 07:47:13;;;;;;;6.45;4.47;;;9.90;97.80;;;;;;5034397;28;20107;-44
2023/12/07 07:49:39;;;;;;;5.55;3.90;;;10.00;97.70;;;;;;5034508;28;20033;-45
2023/12/07 07:52:05;;;;;;;7.07;3.70;;;10.00;97.60;;;;;;5034930;28;20033;-45
2023/12/07 07:54:31;;;;;;;5.88;3.70;;;10.10;97.60;;;;;;5034210;28;20539;-45
2023/12/07 07:56:56;;;;;;;5.90;4.18;;;10.20;97.60;;;;;;5035176;28;20029;-44
2023/12/07 07:59:22;;;;;;;5.25;3.78;;;10.20;97.50;;;;;;5033980;28;20160;-45
2023/12/07 08:01:48;;;;;;;5.68;3.95;;;10.30;97.40;;;;;;5034271;28;20402;-44
2023/12/07 08:04:15;;;;;;;5.25;3.50;;;10.40;97.40;;;;;;5034749;28;20036;-45
2023/12/07 08:06:41;;;;;;;5.82;3.53;;;10.50;97.30;;;;;;5035207;28;20033;-45
2023/12/07 08:09:09;;;;;;;4.70;3.33;;;10.50;97.60;;;;;;5033984;28;20494;-44
2023/12/07 08:11:34;;;;;;;4.80;3.70;;;10.60;97.20;;;;;;5034520;28;20535;-44
2023/12/07 08:14:00;;;;;;;7.03;3.70;;;10.80;97.20;;;;;;5034605;28;20077;-45
2023/12/07 08:16:27;;;;;;;6.15;3.80;;;10.80;97.10;;;;;;5034003;28;20022;-44
2023/12/07 08:18:52;;;;;;;6.00;3.50;;;10.90;97.00;;;;;;5034124;28;20025;-45
2023/12/07 08:21:20;;;;;;;5.55;3.45;;;11.00;96.90;;;;;;5033642;28;20036;-45
2023/12/07 08:23:45;;;;;;;5.32;3.58;;;11.10;96.80;;;;;;5033433;28;20036;-44
2023/12/07 08:26:14;;;;;;;5.57;3.80;;;11.20;96.70;;;;;;5033464;28;20026;-44
2023/12/07 08:28:43;;;;;;;5.28;3.47;;;11.40;96.60;;;;;;5033686;28;20024;-45
2023/12/07 08:31:09;;;;;;;4.78;3.20;;;11.50;96.50;;;;;;5034496;28;20029;-45
2023/12/07 08:33:35;;;;;;;5.43;3.75;;;11.60;96.40;;;;;;5033944;28;20072;-45
2023/12/07 08:36:04;;;;;;;5.93;3.47;;;11.70;96.30;;;;;;5034324;28;20515;-45
2023/12/07 08:38:30;;;;;;;5.68;3.22;;;11.80;96.10;;;;;;5033591;28;20030;-45
2023/12/07 08:40:55;;;;;;;6.28;3.53;;;11.90;96.00;;;;;;5032714;28;20025;-44
2023/12/07 08:43:25;;;;;;;5.53;3.38;;;12.00;95.90;;;;;;5033308;28;20060;-44
2023/12/07 08:45:51;;;;;;;5.35;3.42;;;12.10;95.80;;;;;;5033161;28;20490;-45
2023/12/07 08:48:18;;;;;;;5.20;3.33;;;12.20;95.60;;;;;;5033615;28;20028;-44
2023/12/07 08:50:44;;;;;;;4.97;3.15;;;12.30;95.50;;;;;;5033360;28;20079;-45
2023/12/07 08:53:10;;;;;;;4.47;3.38;;;12.40;95.40;;;;;;5033547;28;20108;-44
2023/12/07 08:55:35;;;;;;;5.20;3.40;;;12.60;95.30;;;;;;5034088;28;20472;-45
2023/12/07 08:58:03;;;;;;;5.43;3.33;;;12.60;95.20;;;;;;5032947;28;20467;-45
2023/12/07 09:00:32;;;;;;;4.65;3.00;;;12.70;95.10;;;;;;5032952;28;20017;-44
2023/12/07 09:02:58;;;;;;;5.45;3.58;;;12.80;95.30;;;;;;5032853;28;20076;-45
2023/12/07 09:05:25;;;;;;;5.28;3.35;;;12.90;94.90;;;;;;5032812;28;20025;-46
2023/12/07 09:07:52;;;;;;;5.88;3.50;;;13.00;94.80;;;;;;5032819;28;20037;-44
2023/12/07 09:10:18;;;;;;;5.32;3.10;;;13.10;94.70;;;;;;5032681;28;20399;-45
2023/12/07 09:12:44;;;;;;;5.57;4.20;;;13.20;94.60;;;;;;5033219;28;20029;-45
2023/12/07 09:15:10;;;;;;;6.53;3.97;;;13.20;94.50;;;;;;5033355;28;20072;-44
2023/12/07 09:17:37;;;;;;;4.35;3.38;;;13.30;94.40;;;;;;5032387;28;20060;-44
2023/12/07 09:20:05;;;;;;;5.75;3.42;;;13.40;94.40;;;;;;5032575;28;20049;-44
2023/12/07 09:22:30;;;;;;;5.40;3.75;;;13.50;94.30;;;;;;5032364;28;20034;-45
2023/12/07 09:24:56;;;;;;;7.15;3.70;;;13.60;94.20;;;;;;5032829;28;20533;-46
2023/12/07 09:27:22;;;;;;;4.57;3.22;;;13.70;94.10;;;;;;5032339;28;20026;-44
2023/12/07 09:29:48;;;;;;;6.00;3.78;;;13.80;94.00;;;;;;5032276;28;20026;-45
2023/12/07 09:32:14;;;;;;;5.22;3.65;;;13.90;93.90;;;;;;5032249;28;20092;-45
2023/12/07 09:34:40;;;;;;;5.70;3.33;;;14.00;93.80;;;;;;5032330;28;20164;-44
2023/12/07 09:37:09;;;;;;;4.85;3.20;;;14.10;93.70;;;;;;5032157;28;20423;-44
2023/12/07 09:39:35;;;;;;;4.18;2.85;;;14.20;93.60;;;;;;5032207;28;20030;-45
2023/12/07 09:42:02;;;;;;;5.10;3.20;;;14.30;93.60;;;;;;5032264;28;20033;-44
2023/12/07 09:44:28;;;;;;;4.13;3.05;;;14.30;93.50;;;;;;5032171;28;20036;-44
2023/12/07 09:46:54;;;;;;;4.15;3.25;;;14.50;93.40;;;;;;5032130;28;20105;-45
2023/12/07 09:49:20;;;;;;;4.50;3.10;;;14.50;93.30;;;;;;5032632;28;20540;-44
2023/12/07 09:51:49;;;;;;;5.70;3.33;;;14.60;93.20;;;;;;5031554;28;20121;-45
2023/12/07 09:54:15;;;;;;;5.55;3.25;;;14.70;93.10;;;;;;5031643;28;20033;-45
2023/12/07 09:56:41;;;;;;;4.90;3.33;;;14.80;93.00;;;;;;5033551;28;20037;-45
2023/12/07 09:59:07;;;;;;;3.67;2.83;;;14.80;92.90;;;;;;5032629;28;20021;-44
2023/12/07 10:01:35;;;;;;;5.10;2.80;;;14.90;92.80;;;;;;5032982;28;20498;-45
2023/12/07 10:04:20;;;;;;;3.70;2.90;;;15.00;92.80;;;;;;5032072;28;20044;-45
2023/12/07 10:06:47;;;;;;;4.20;2.70;;;15.10;92.70;;;;;;5032419;28;20022;-45
2023/12/07 10:09:13;;;;;;;4.78;2.90;;;15.20;92.60;;;;;;5031884;28;20018;-44
2023/12/07 10:11:39;;;;;;;3.90;3.10;;;15.30;92.50;;;;;;5032622;28;20305;-44
2023/12/07 10:14:07;;;;;;;4.10;2.97;;;15.40;92.50;;;;;;5032799;28;20025;-45
2023/12/07 10:16:35;;;;;;;4.38;3.08;;;15.40;92.40;;;;;;5031377;28;20380;-45
2023/12/07 10:19:24;;;;;;;3.58;2.70;;;15.50;92.30;;;;;;5031524;28;20056;-44
2023/12/07 10:21:53;;;;;;;3.90;2.60;;;15.60;92.20;;;;;;5032508;28;20033;-46
2023/12/07 10:24:26;;;;;;;3.90;3.08;;;15.70;92.10;;;;;;5032616;28;20251;-45
2023/12/07 10:26:52;;;;;;;4.00;3.17;;;15.70;92.00;;;;;;5032317;28;20021;-44
2023/12/07 10:29:19;;;;;;;4.28;3.05;;;15.80;92.00;;;;;;5031180;28;20113;-45
2023/12/07 10:31:47;;;;;;;3.58;2.80;;;15.90;91.90;;;;;;5031404;28;20033;-45
2023/12/07 10:34:13;;;;;;;4.57;3.08;;;15.90;91.80;;;;;;5031289;28;20360;-44
2023/12/07 10:36:38;;;;;;;4.68;3.28;;;16.00;91.70;;;;;;5031274;28;20021;-45
2023/12/07 10:39:07;;;;;;;5.13;3.13;;;16.10;91.70;;;;;;5031225;28;20028;-44
2023/12/07 10:41:35;;;;;;;4.10;2.90;;;16.20;91.60;;;;;;5031085;28;20018;-45
2023/12/07 10:44:03;;;;;;;4.68;3.00;;;16.20;91.60;;;;;;5031317;28;20452;-45
2023/12/07 10:46:32;;;;;;;3.45;2.70;;;16.20;91.60;;;;;;5031193;28;20025;-44
2023/12/07 10:49:05;;;;;;;4.40;3.10;;;16.20;91.50;;;;;;5031681;28;20488;-44
2023/12/07 10:51:56;;;;;;;3.88;2.30;;;16.30;91.50;;;;;;5030910;28;20501;-45
2023/12/07 10:54:24;;;;;;;3.03;2.70;;;16.30;91.40;;;;;;5031762;28;20036;-44
2023/12/07 10:56:50;;;;;;;4.07;2.83;;;16.40;91.40;;;;;;5031422;28;20483;-45
2023/12/07 10:59:17;;;;;;;5.63;2.70;;;16.40;91.30;;;;;;5030949;28;20040;-45
2023/12/07 11:01:43;;;;;;;3.50;2.67;;;16.50;91.20;;;;;;5031646;28;20567;-44
2023/12/07 11:04:13;;;;;;;2.92;2.33;;;16.50;91.50;;;;;;5032377;28;20123;-44
2023/12/07 11:06:44;;;;;;;3.53;2.53;;;16.60;91.10;;;;;;5035503;28;20021;-45
2023/12/07 11:09:18;;;;;;;3.55;2.28;;;16.60;91.10;;;;;;5035027;28;20041;-44
2023/12/07 11:11:48;;;;;;;3.70;2.60;;;16.60;91.00;;;;;;5035801;28;20606;-45
2023/12/07 11:14:16;;;;;;;2.80;1.95;;;16.70;91.00;;;;;;5034930;28;20033;-45
2023/12/07 11:16:46;;;;;;;3.65;2.25;;;16.70;90.90;;;;;;5034896;28;20479;-44
2023/12/07 11:19:32;;;;;;;4.32;2.25;;;16.70;90.80;;;;;;5035131;28;20433;-44
2023/12/07 11:22:00;;;;;;;4.07;2.40;;;16.80;90.80;;;;;;5035776;28;20044;-44
2023/12/07 11:24:25;;;;;;;2.60;2.10;;;16.80;90.70;;;;;;5035677;28;20034;-44
2023/12/07 11:26:58;;;;;;;3.25;2.47;;;16.90;90.70;;;;;;5035248;28;20040;-45
2023/12/07 11:29:29;;;;;;;3.20;2.22;;;16.90;90.60;;;;;;5034875;28;20084;-44
2023/12/07 11:32:06;;;;;;;3.15;2.08;;;16.90;90.50;;;;;;5034833;28;20018;-45
2023/12/07 11:34:42;;;;;;;3.15;2.35;;;17.00;90.50;;;;;;5035658;28;20017;-45
2023/12/07 11:37:09;;;;;;;3.83;2.58;;;17.00;90.40;;;;;;5034583;28;20018;-44
2023/12/07 11:39:39;;;;;;;3.22;2.10;;;17.10;90.30;;;;;;5035820;28;20365;-44
2023/12/07 11:42:10;;;;;;;2.70;2.08;;;17.10;90.30;;;;;;5035293;28;20033;-45
2023/12/07 11:44:40;;;;;;;3.67;2.10;;;17.10;90.20;;;;;;5034405;28;20049;-45
2023/12/07 11:47:07;;;;;;;4.38;2.38;;;17.10;90.20;;;;;;5034370;28;20364;-45
2023/12/07 11:49:33;;;;;;;3.03;2.10;;;17.10;90.10;;;;;;5034042;28;20034;-45
2023/12/07 11:51:59;;;;;;;3.08;2.17;;;17.10;90.10;;;;;;5032874;28;20017;-45
2023/12/07 11:54:26;;;;;;;3.47;2.20;;;17.10;90.10;;;;;;5034178;28;20079;-45
2023/12/07 11:56:55;;;;;;;3.58;2.00;;;17.10;90.00;;;;;;5034121;28;20053;-45
2023/12/07 11:59:27;;;;;;;3.15;2.10;;;17.10;90.00;;;;;;5033970;28;20104;-45
2023/12/07 12:01:53;;;;;;;2.83;1.95;;;17.10;89.90;;;;;;5034181;28;20037;-45
2023/12/07 12:04:18;;;;;;;2.65;2.10;;;17.10;89.80;;;;;;5033771;28;20029;-45
2023/12/07 12:06:45;;;;;;;2.20;1.75;;;17.10;89.60;;;;;;5033967;28;20119;-45
2023/12/07 12:09:17;;;;;;;2.67;2.00;;;17.20;89.40;;;;;;5033823;28;20040;-45
2023/12/07 12:11:49;;;;;;;3.15;1.90;;;17.20;89.20;;;;;;5033991;28;20029;-45
2023/12/07 12:14:16;;;;;;;3.05;1.92;;;17.20;89.10;;;;;;5034076;28;20523;-45
2023/12/07 12:16:51;;;;;;;3.95;2.28;;;17.20;89.10;;;;;;5034379;28;20399;-45
2023/12/07 12:19:17;;;;;;;3.35;2.05;;;17.20;89.00;;;;;;5033637;28;20031;-44
2023/12/07 12:21:43;;;;;;;3.50;2.10;;;17.20;88.90;;;;;;5033877;28;20038;-44
2023/12/07 12:24:10;;;;;;;2.63;2.00;;;17.20;88.80;;;;;;5033857;28;20034;-44
2023/12/07 12:26:41;;;;;;;2.85;2.00;;;17.30;88.70;;;;;;5033606;28;20030;-45
2023/12/07 12:29:11;;;;;;;2.58;1.73;;;17.30;88.70;;;;;;5033428;28;20391;-45
2023/12/07 12:31:37;;;;;;;3.38;1.90;;;17.30;88.60;;;;;;5033339;28;20029;-45
2023/12/07 12:34:07;;;;;;;2.80;2.00;;;17.30;88.60;;;;;;5033896;28;20045;-45
2023/12/07 12:36:32;;;;;;;3.55;2.15;;;17.30;88.50;;;;;;5033388;28;20439;-45
2023/12/07 12:38:58;;;;;;;2.70;1.92;;;17.30;88.50;;;;;;5033372;28;20021;-45
2023/12/07 12:41:24;;;;;;;2.38;1.60;;;17.20;88.30;;;;;;5033316;28;20018;-45
2023/12/07 12:43:51;;;;;;;3.38;1.85;;;17.20;88.30;;;;;;5033362;28;20045;-45
2023/12/07 12:46:17;;;;;;;2.05;1.65;;;17.20;88.20;;;;;;5033337;28;20094;-45
2023/12/07 12:48:55;;;;;;;3.03;2.10;;;17.20;88.10;;;;;;5033507;28;20479;-44